sensor_id;sensor_type;location;lat;lon;timestamp;pressure;altitude;pressure_sealevel;temperature;humidity
24160;BME280;62385;41.594;23.808;2023-02-18T00:01:44;96356.09;;;1.10;63.83
24160;BME280;62385;41.594;23.808;2023-02-18T00:04:09;96355.97;;;0.83;64.17
24160;BME280;62385;41.594;23.808;2023-02-18T00:06:38;96362.03;;;0.83;64.35
24160;BME280;62385;41.594;23.808;2023-02-18T00:09:07;96358.50;;;0.70;65.31
24160;BME280;62385;41.594;23.808;2023-02-18T00:11:40;96356.78;;;1.27;64.00
24160;BME280;62385;41.594;23.808;2023-02-18T00:14:12;96341.00;;;1.15;63.76
24160;BME280;62385;41.594;23.808;2023-02-18T00:16:41;96343.19;;;0.92;64.71
24160;BME280;62385;41.594;23.808;2023-02-18T00:19:27;96333.28;;;0.69;64.68
24160;BME280;62385;41.594;23.808;2023-02-18T00:21:53;96351.22;;;0.89;64.81
24160;BME280;62385;41.594;23.808;2023-02-18T00:24:21;96344.19;;;0.76;65.30
24160;BME280;62385;41.594;23.808;2023-02-18T00:26:52;96332.34;;;0.70;64.91
24160;BME280;62385;41.594;23.808;2023-02-18T00:29:18;96340.19;;;0.70;66.16
24160;BME280;62385;41.594;23.808;2023-02-18T00:31:46;96342.25;;;0.79;65.76
24160;BME280;62385;41.594;23.808;2023-02-18T00:34:12;96340.00;;;0.87;65.78
24160;BME280;62385;41.594;23.808;2023-02-18T00:36:38;96343.94;;;0.80;65.55
24160;BME280;62385;41.594;23.808;2023-02-18T00:39:06;96317.03;;;0.64;65.57
24160;BME280;62385;41.594;23.808;2023-02-18T00:41:33;96316.63;;;0.56;66.39
24160;BME280;62385;41.594;23.808;2023-02-18T00:43:59;96322.09;;;0.81;64.90
24160;BME280;62385;41.594;23.808;2023-02-18T00:46:29;96317.25;;;0.89;64.54
24160;BME280;62385;41.594;23.808;2023-02-18T00:48:59;96302.34;;;1.20;63.88
24160;BME280;62385;41.594;23.808;2023-02-18T00:51:32;96315.31;;;1.76;62.44
24160;BME280;62385;41.594;23.808;2023-02-18T00:53:58;96317.72;;;0.96;64.42
24160;BME280;62385;41.594;23.808;2023-02-18T00:56:24;96335.19;;;1.10;64.34
24160;BME280;62385;41.594;23.808;2023-02-18T00:58:50;96331.72;;;1.09;64.08
24160;BME280;62385;41.594;23.808;2023-02-18T01:01:17;96336.66;;;1.00;64.34
24160;BME280;62385;41.594;23.808;2023-02-18T01:03:43;96336.28;;;0.91;64.55
24160;BME280;62385;41.594;23.808;2023-02-18T01:06:10;96332.56;;;0.81;64.85
24160;BME280;62385;41.594;23.808;2023-02-18T01:08:36;96334.13;;;0.70;65.86
24160;BME280;62385;41.594;23.808;2023-02-18T01:11:03;96330.66;;;0.83;65.35
24160;BME280;62385;41.594;23.808;2023-02-18T01:13:29;96328.63;;;0.74;65.59
24160;BME280;62385;41.594;23.808;2023-02-18T01:15:55;96326.78;;;0.90;65.38
24160;BME280;62385;41.594;23.808;2023-02-18T01:21:05;96313.78;;;0.89;65.81
24160;BME280;62385;41.594;23.808;2023-02-18T01:23:39;96287.44;;;0.50;66.04
24160;BME280;62385;41.594;23.808;2023-02-18T01:26:06;96295.66;;;-0.02;66.75
24160;BME280;62385;41.594;23.808;2023-02-18T01:28:32;96307.16;;;0.10;66.79
24160;BME280;62385;41.594;23.808;2023-02-18T01:31:05;96281.09;;;-0.06;68.45
24160;BME280;62385;41.594;23.808;2023-02-18T01:33:31;96297.88;;;0.20;67.93
24160;BME280;62385;41.594;23.808;2023-02-18T01:35:59;96277.25;;;0.59;65.91
24160;BME280;62385;41.594;23.808;2023-02-18T01:38:25;96262.38;;;0.31;66.04
24160;BME280;62385;41.594;23.808;2023-02-18T01:40:51;96259.84;;;0.30;65.89
24160;BME280;62385;41.594;23.808;2023-02-18T01:43:18;96275.56;;;0.44;65.69
24160;BME280;62385;41.594;23.808;2023-02-18T01:45:49;96273.56;;;0.91;65.06
24160;BME280;62385;41.594;23.808;2023-02-18T01:48:20;96271.50;;;1.11;64.71
24160;BME280;62385;41.594;23.808;2023-02-18T01:50:50;96272.69;;;1.33;64.44
24160;BME280;62385;41.594;23.808;2023-02-18T01:53:21;96269.19;;;1.06;64.44
24160;BME280;62385;41.594;23.808;2023-02-18T01:55:48;96254.13;;;0.67;65.12
24160;BME280;62385;41.594;23.808;2023-02-18T01:58:14;96270.28;;;0.88;65.15
24160;BME280;62385;41.594;23.808;2023-02-18T02:00:40;96255.22;;;0.35;65.72
24160;BME280;62385;41.594;23.808;2023-02-18T02:03:06;96250.44;;;0.27;65.83
24160;BME280;62385;41.594;23.808;2023-02-18T02:05:33;96276.69;;;0.10;66.37
24160;BME280;62385;41.594;23.808;2023-02-18T02:08:00;96263.13;;;0.33;66.35
24160;BME280;62385;41.594;23.808;2023-02-18T02:10:40;96274.22;;;0.23;66.00
24160;BME280;62385;41.594;23.808;2023-02-18T02:13:25;96261.28;;;0.06;66.35
24160;BME280;62385;41.594;23.808;2023-02-18T02:16:12;96274.28;;;0.21;66.31
24160;BME280;62385;41.594;23.808;2023-02-18T02:43:33;96260.44;;;0.35;65.50
24160;BME280;62385;41.594;23.808;2023-02-18T02:46:11;96272.94;;;-0.16;67.06
24160;BME280;62385;41.594;23.808;2023-02-18T02:51:31;96266.66;;;-0.27;67.07
24160;BME280;62385;41.594;23.808;2023-02-18T02:56:43;96281.97;;;-0.37;68.18
24160;BME280;62385;41.594;23.808;2023-02-18T02:59:15;96280.97;;;-0.34;67.70
24160;BME280;62385;41.594;23.808;2023-02-18T03:05:09;96280.63;;;-0.28;67.89
24160;BME280;62385;41.594;23.808;2023-02-18T03:11:02;96276.06;;;-0.09;67.83
24160;BME280;62385;41.594;23.808;2023-02-18T03:19:09;96263.16;;;-0.12;67.60
24160;BME280;62385;41.594;23.808;2023-02-18T03:21:55;96276.25;;;-0.28;68.04
24160;BME280;62385;41.594;23.808;2023-02-18T03:24:43;96281.81;;;-0.50;68.27
24160;BME280;62385;41.594;23.808;2023-02-18T03:29:44;96271.13;;;-0.45;67.91
24160;BME280;62385;41.594;23.808;2023-02-18T03:32:12;96285.56;;;-0.08;67.29
24160;BME280;62385;41.594;23.808;2023-02-18T03:34:43;96272.50;;;0.08;66.51
24160;BME280;62385;41.594;23.808;2023-02-18T03:37:11;96280.69;;;-0.14;67.13
24160;BME280;62385;41.594;23.808;2023-02-18T03:39:40;96273.34;;;-0.08;66.74
24160;BME280;62385;41.594;23.808;2023-02-18T03:42:08;96276.75;;;-0.37;67.89
24160;BME280;62385;41.594;23.808;2023-02-18T03:44:34;96280.91;;;-0.03;67.73
24160;BME280;62385;41.594;23.808;2023-02-18T03:47:00;96280.63;;;-0.44;68.98
24160;BME280;62385;41.594;23.808;2023-02-18T03:49:25;96277.94;;;-0.27;68.98
24160;BME280;62385;41.594;23.808;2023-02-18T03:51:51;96274.03;;;-0.20;68.03
24160;BME280;62385;41.594;23.808;2023-02-18T03:54:17;96273.59;;;-0.42;68.95
24160;BME280;62385;41.594;23.808;2023-02-18T03:56:43;96274.59;;;0.01;67.61
24160;BME280;62385;41.594;23.808;2023-02-18T03:59:10;96270.31;;;0.00;66.88
24160;BME280;62385;41.594;23.808;2023-02-18T04:01:36;96272.91;;;-0.30;67.30
24160;BME280;62385;41.594;23.808;2023-02-18T04:04:02;96271.69;;;-0.24;67.75
24160;BME280;62385;41.594;23.808;2023-02-18T04:06:28;96276.44;;;-0.62;68.34
24160;BME280;62385;41.594;23.808;2023-02-18T04:08:54;96272.63;;;-1.04;70.10
24160;BME280;62385;41.594;23.808;2023-02-18T04:11:19;96273.56;;;-0.73;70.34
24160;BME280;62385;41.594;23.808;2023-02-18T04:13:45;96252.31;;;-0.50;69.17
24160;BME280;62385;41.594;23.808;2023-02-18T04:16:11;96257.75;;;-0.39;68.21
24160;BME280;62385;41.594;23.808;2023-02-18T04:18:37;96264.38;;;-0.18;68.04
24160;BME280;62385;41.594;23.808;2023-02-18T04:21:02;96255.78;;;-0.20;67.46
24160;BME280;62385;41.594;23.808;2023-02-18T04:23:28;96265.03;;;-0.14;67.43
24160;BME280;62385;41.594;23.808;2023-02-18T04:25:54;96256.72;;;-0.21;67.84
24160;BME280;62385;41.594;23.808;2023-02-18T04:28:19;96262.63;;;-0.17;67.69
24160;BME280;62385;41.594;23.808;2023-02-18T04:30:46;96259.59;;;-0.25;67.19
24160;BME280;62385;41.594;23.808;2023-02-18T04:33:12;96270.78;;;-0.39;68.15
24160;BME280;62385;41.594;23.808;2023-02-18T04:35:38;96266.50;;;-0.40;67.74
24160;BME280;62385;41.594;23.808;2023-02-18T04:38:08;96268.66;;;-0.32;67.35
24160;BME280;62385;41.594;23.808;2023-02-18T04:40:35;96276.06;;;-0.25;67.29
24160;BME280;62385;41.594;23.808;2023-02-18T04:43:01;96269.81;;;-0.07;66.78
24160;BME280;62385;41.594;23.808;2023-02-18T04:45:27;96270.28;;;-0.30;66.94
24160;BME280;62385;41.594;23.808;2023-02-18T04:47:53;96288.72;;;-0.17;67.62
24160;BME280;62385;41.594;23.808;2023-02-18T04:50:19;96288.25;;;-0.10;67.01
24160;BME280;62385;41.594;23.808;2023-02-18T04:52:46;96287.53;;;-0.27;67.21
24160;BME280;62385;41.594;23.808;2023-02-18T04:55:12;96295.44;;;-0.44;67.97
24160;BME280;62385;41.594;23.808;2023-02-18T04:57:37;96293.69;;;-0.44;66.77
24160;BME280;62385;41.594;23.808;2023-02-18T05:00:07;96296.19;;;-0.27;67.73
24160;BME280;62385;41.594;23.808;2023-02-18T05:02:33;96304.75;;;-0.25;67.01
24160;BME280;62385;41.594;23.808;2023-02-18T05:04:59;96297.28;;;-0.78;67.97
24160;BME280;62385;41.594;23.808;2023-02-18T05:07:25;96295.13;;;-1.03;68.97
24160;BME280;62385;41.594;23.808;2023-02-18T05:09:50;96306.16;;;-0.98;69.92
24160;BME280;62385;41.594;23.808;2023-02-18T05:12:16;96297.88;;;-0.88;69.18
24160;BME280;62385;41.594;23.808;2023-02-18T05:14:42;96304.72;;;-1.03;69.66
24160;BME280;62385;41.594;23.808;2023-02-18T05:17:09;96319.81;;;-0.93;69.72
24160;BME280;62385;41.594;23.808;2023-02-18T05:19:34;96324.63;;;-1.02;70.35
24160;BME280;62385;41.594;23.808;2023-02-18T05:22:00;96319.75;;;-0.75;69.83
24160;BME280;62385;41.594;23.808;2023-02-18T05:24:26;96322.16;;;-0.88;69.32
24160;BME280;62385;41.594;23.808;2023-02-18T05:26:51;96323.28;;;-0.76;69.49
24160;BME280;62385;41.594;23.808;2023-02-18T05:29:17;96334.06;;;-0.67;69.41
24160;BME280;62385;41.594;23.808;2023-02-18T05:31:42;96328.06;;;-0.84;69.49
24160;BME280;62385;41.594;23.808;2023-02-18T05:34:08;96327.41;;;-0.72;69.72
24160;BME280;62385;41.594;23.808;2023-02-18T05:36:33;96328.16;;;-1.03;69.38
24160;BME280;62385;41.594;23.808;2023-02-18T05:38:59;96327.41;;;-1.05;70.24
24160;BME280;62385;41.594;23.808;2023-02-18T05:41:26;96319.81;;;-0.77;70.07
24160;BME280;62385;41.594;23.808;2023-02-18T05:43:51;96317.47;;;-0.66;69.37
24160;BME280;62385;41.594;23.808;2023-02-18T05:46:35;96321.19;;;-0.38;69.37
24160;BME280;62385;41.594;23.808;2023-02-18T05:49:01;96323.97;;;-0.26;68.46
24160;BME280;62385;41.594;23.808;2023-02-18T05:51:26;96324.69;;;0.08;67.76
24160;BME280;62385;41.594;23.808;2023-02-18T05:53:52;96323.53;;;-0.03;67.73
24160;BME280;62385;41.594;23.808;2023-02-18T05:56:18;96323.19;;;0.04;68.13
24160;BME280;62385;41.594;23.808;2023-02-18T05:58:44;96329.66;;;0.12;67.37
24160;BME280;62385;41.594;23.808;2023-02-18T06:01:10;96329.38;;;0.32;67.04
24160;BME280;62385;41.594;23.808;2023-02-18T06:03:35;96321.88;;;0.26;67.73
24160;BME280;62385;41.594;23.808;2023-02-18T06:06:01;96332.41;;;0.09;68.57
24160;BME280;62385;41.594;23.808;2023-02-18T06:08:27;96337.34;;;0.45;67.15
24160;BME280;62385;41.594;23.808;2023-02-18T06:10:54;96335.94;;;0.24;68.16
24160;BME280;62385;41.594;23.808;2023-02-18T06:13:19;96345.91;;;0.47;67.69
24160;BME280;62385;41.594;23.808;2023-02-18T06:15:45;96349.34;;;0.18;68.59
24160;BME280;62385;41.594;23.808;2023-02-18T06:18:11;96345.47;;;0.25;67.98
24160;BME280;62385;41.594;23.808;2023-02-18T06:20:38;96352.50;;;0.68;67.58
24160;BME280;62385;41.594;23.808;2023-02-18T06:23:04;96345.16;;;0.45;67.79
24160;BME280;62385;41.594;23.808;2023-02-18T06:25:30;96344.06;;;0.63;67.27
24160;BME280;62385;41.594;23.808;2023-02-18T06:27:55;96342.47;;;0.90;66.76
24160;BME280;62385;41.594;23.808;2023-02-18T06:30:21;96350.13;;;0.93;66.11
24160;BME280;62385;41.594;23.808;2023-02-18T06:32:47;96350.31;;;1.05;66.07
24160;BME280;62385;41.594;23.808;2023-02-18T06:35:13;96349.78;;;1.28;65.61
24160;BME280;62385;41.594;23.808;2023-02-18T06:37:39;96348.16;;;1.54;65.08
24160;BME280;62385;41.594;23.808;2023-02-18T06:40:06;96334.50;;;1.63;65.01
24160;BME280;62385;41.594;23.808;2023-02-18T06:42:31;96333.66;;;1.76;64.62
24160;BME280;62385;41.594;23.808;2023-02-18T06:44:57;96328.19;;;1.94;64.62
24160;BME280;62385;41.594;23.808;2023-02-18T06:47:23;96334.91;;;1.98;64.99
24160;BME280;62385;41.594;23.808;2023-02-18T06:49:48;96338.66;;;1.94;65.45
24160;BME280;62385;41.594;23.808;2023-02-18T06:52:14;96326.53;;;2.32;64.35
24160;BME280;62385;41.594;23.808;2023-02-18T06:54:41;96331.22;;;2.14;64.35
24160;BME280;62385;41.594;23.808;2023-02-18T06:57:06;96324.72;;;2.20;64.90
24160;BME280;62385;41.594;23.808;2023-02-18T06:59:32;96318.97;;;2.15;64.89
24160;BME280;62385;41.594;23.808;2023-02-18T07:01:58;96310.34;;;2.13;64.66
24160;BME280;62385;41.594;23.808;2023-02-18T07:04:23;96318.03;;;2.28;64.77
24160;BME280;62385;41.594;23.808;2023-02-18T07:06:49;96325.72;;;2.31;64.17
24160;BME280;62385;41.594;23.808;2023-02-18T07:09:14;96317.34;;;2.39;64.00
24160;BME280;62385;41.594;23.808;2023-02-18T07:11:40;96307.31;;;2.58;64.21
24160;BME280;62385;41.594;23.808;2023-02-18T07:14:05;96310.38;;;2.77;63.96
24160;BME280;62385;41.594;23.808;2023-02-18T07:16:31;96315.19;;;2.71;64.08
24160;BME280;62385;41.594;23.808;2023-02-18T07:18:57;96306.09;;;2.76;64.80
24160;BME280;62385;41.594;23.808;2023-02-18T07:21:22;96321.41;;;2.95;63.37
24160;BME280;62385;41.594;23.808;2023-02-18T07:23:48;96327.28;;;3.11;63.35
24160;BME280;62385;41.594;23.808;2023-02-18T07:26:14;96328.66;;;3.04;62.65
24160;BME280;62385;41.594;23.808;2023-02-18T07:28:40;96318.78;;;3.08;62.85
24160;BME280;62385;41.594;23.808;2023-02-18T07:31:07;96312.59;;;3.21;62.70
24160;BME280;62385;41.594;23.808;2023-02-18T07:33:36;96327.91;;;3.28;63.08
24160;BME280;62385;41.594;23.808;2023-02-18T07:36:02;96313.91;;;3.52;62.65
24160;BME280;62385;41.594;23.808;2023-02-18T07:38:29;96320.28;;;3.73;61.41
24160;BME280;62385;41.594;23.808;2023-02-18T07:40:56;96324.38;;;3.78;60.59
24160;BME280;62385;41.594;23.808;2023-02-18T07:43:22;96311.41;;;4.00;60.30
24160;BME280;62385;41.594;23.808;2023-02-18T07:45:48;96299.00;;;3.65;61.09
24160;BME280;62385;41.594;23.808;2023-02-18T07:48:15;96302.78;;;3.61;61.36
24160;BME280;62385;41.594;23.808;2023-02-18T07:50:43;96305.16;;;3.77;60.73
24160;BME280;62385;41.594;23.808;2023-02-18T07:53:10;96307.91;;;3.76;61.06
24160;BME280;62385;41.594;23.808;2023-02-18T07:55:36;96294.69;;;4.01;60.35
24160;BME280;62385;41.594;23.808;2023-02-18T08:00:40;96296.56;;;4.23;59.91
24160;BME280;62385;41.594;23.808;2023-02-18T08:03:06;96290.09;;;3.92;61.29
24160;BME280;62385;41.594;23.808;2023-02-18T08:05:31;96289.09;;;4.05;60.58
24160;BME280;62385;41.594;23.808;2023-02-18T08:07:57;96292.94;;;4.71;59.14
24160;BME280;62385;41.594;23.808;2023-02-18T08:10:25;96282.03;;;4.30;60.21
24160;BME280;62385;41.594;23.808;2023-02-18T08:12:52;96268.69;;;4.44;60.04
24160;BME280;62385;41.594;23.808;2023-02-18T08:15:19;96263.97;;;5.17;57.98
24160;BME280;62385;41.594;23.808;2023-02-18T08:17:44;96257.47;;;5.88;55.82
24160;BME280;62385;41.594;23.808;2023-02-18T08:20:10;96253.44;;;6.89;52.61
24160;BME280;62385;41.594;23.808;2023-02-18T08:22:36;96247.75;;;5.99;52.86
24160;BME280;62385;41.594;23.808;2023-02-18T08:25:02;96228.81;;;6.58;52.67
24160;BME280;62385;41.594;23.808;2023-02-18T08:27:27;96230.63;;;7.39;50.99
24160;BME280;62385;41.594;23.808;2023-02-18T08:29:53;96243.09;;;7.67;50.01
24160;BME280;62385;41.594;23.808;2023-02-18T08:32:20;96242.34;;;7.96;50.20
24160;BME280;62385;41.594;23.808;2023-02-18T08:34:46;96238.22;;;7.53;52.38
24160;BME280;62385;41.594;23.808;2023-02-18T08:37:12;96243.34;;;6.73;53.71
24160;BME280;62385;41.594;23.808;2023-02-18T08:39:38;96243.28;;;7.35;53.14
24160;BME280;62385;41.594;23.808;2023-02-18T08:42:04;96237.59;;;7.10;53.10
24160;BME280;62385;41.594;23.808;2023-02-18T08:44:30;96228.09;;;6.77;53.57
24160;BME280;62385;41.594;23.808;2023-02-18T08:46:55;96224.66;;;7.37;52.06
24160;BME280;62385;41.594;23.808;2023-02-18T08:49:21;96228.94;;;7.38;52.58
24160;BME280;62385;41.594;23.808;2023-02-18T08:51:50;96222.75;;;7.18;52.90
24160;BME280;62385;41.594;23.808;2023-02-18T08:54:16;96226.75;;;7.13;52.53
24160;BME280;62385;41.594;23.808;2023-02-18T08:56:42;96229.22;;;7.05;53.48
24160;BME280;62385;41.594;23.808;2023-02-18T08:59:07;96233.31;;;7.49;51.88
24160;BME280;62385;41.594;23.808;2023-02-18T09:01:33;96221.94;;;7.58;51.50
24160;BME280;62385;41.594;23.808;2023-02-18T09:03:58;96210.22;;;7.41;52.49
24160;BME280;62385;41.594;23.808;2023-02-18T09:06:25;96213.47;;;7.64;52.28
24160;BME280;62385;41.594;23.808;2023-02-18T09:08:51;96207.38;;;7.73;52.27
24160;BME280;62385;41.594;23.808;2023-02-18T09:11:17;96217.22;;;7.71;51.96
24160;BME280;62385;41.594;23.808;2023-02-18T09:13:44;96215.47;;;7.81;51.91
24160;BME280;62385;41.594;23.808;2023-02-18T09:16:13;96199.53;;;8.30;50.48
24160;BME280;62385;41.594;23.808;2023-02-18T09:18:40;96197.41;;;8.05;50.97
24160;BME280;62385;41.594;23.808;2023-02-18T09:21:07;96199.41;;;8.32;50.31
24160;BME280;62385;41.594;23.808;2023-02-18T09:23:34;96194.34;;;8.10;50.80
24160;BME280;62385;41.594;23.808;2023-02-18T09:26:03;96189.09;;;8.39;50.20
24160;BME280;62385;41.594;23.808;2023-02-18T09:28:29;96183.50;;;8.51;49.56
24160;BME280;62385;41.594;23.808;2023-02-18T09:30:55;96181.97;;;8.10;49.98
24160;BME280;62385;41.594;23.808;2023-02-18T09:33:20;96184.03;;;8.74;48.50
24160;BME280;62385;41.594;23.808;2023-02-18T09:35:46;96170.16;;;8.99;48.49
24160;BME280;62385;41.594;23.808;2023-02-18T09:38:15;96167.84;;;8.87;47.53
24160;BME280;62385;41.594;23.808;2023-02-18T09:40:44;96159.28;;;8.65;47.53
24160;BME280;62385;41.594;23.808;2023-02-18T09:43:39;96156.44;;;8.76;47.64
24160;BME280;62385;41.594;23.808;2023-02-18T09:46:42;96158.13;;;8.77;46.11
24160;BME280;62385;41.594;23.808;2023-02-18T09:49:17;96169.56;;;8.59;44.40
24160;BME280;62385;41.594;23.808;2023-02-18T09:51:43;96162.28;;;8.90;44.60
24160;BME280;62385;41.594;23.808;2023-02-18T09:54:11;96158.59;;;9.64;43.85
24160;BME280;62385;41.594;23.808;2023-02-18T09:56:38;96148.41;;;10.05;43.80
24160;BME280;62385;41.594;23.808;2023-02-18T09:59:18;96158.88;;;9.61;44.34
24160;BME280;62385;41.594;23.808;2023-02-18T10:01:47;96150.16;;;9.69;42.90
24160;BME280;62385;41.594;23.808;2023-02-18T10:04:17;96143.88;;;10.15;40.33
24160;BME280;62385;41.594;23.808;2023-02-18T10:06:45;96139.41;;;10.15;42.97
24160;BME280;62385;41.594;23.808;2023-02-18T10:09:19;96128.47;;;10.01;44.77
24160;BME280;62385;41.594;23.808;2023-02-18T10:11:57;96118.78;;;10.27;44.04
24160;BME280;62385;41.594;23.808;2023-02-18T10:14:26;96137.84;;;10.23;43.24
24160;BME280;62385;41.594;23.808;2023-02-18T10:16:52;96144.78;;;10.24;43.04
24160;BME280;62385;41.594;23.808;2023-02-18T10:19:22;96128.84;;;9.88;43.83
24160;BME280;62385;41.594;23.808;2023-02-18T10:21:51;96129.22;;;10.11;43.95
24160;BME280;62385;41.594;23.808;2023-02-18T10:27:06;96114.03;;;10.82;42.01
24160;BME280;62385;41.594;23.808;2023-02-18T10:29:33;96102.47;;;10.65;41.65
24160;BME280;62385;41.594;23.808;2023-02-18T10:32:07;96105.06;;;10.57;41.73
24160;BME280;62385;41.594;23.808;2023-02-18T10:34:43;96094.66;;;10.90;41.54
24160;BME280;62385;41.594;23.808;2023-02-18T10:45:49;96073.50;;;11.64;41.61
24160;BME280;62385;41.594;23.808;2023-02-18T10:51:22;96051.13;;;11.83;40.48
24160;BME280;62385;41.594;23.808;2023-02-18T10:53:51;96048.16;;;11.94;39.35
24160;BME280;62385;41.594;23.808;2023-02-18T11:01:43;96035.84;;;12.41;39.22
24160;BME280;62385;41.594;23.808;2023-02-18T11:04:15;96019.38;;;12.30;38.00
24160;BME280;62385;41.594;23.808;2023-02-18T11:06:48;96021.69;;;12.33;39.18
24160;BME280;62385;41.594;23.808;2023-02-18T11:09:45;96028.69;;;12.26;37.62
24160;BME280;62385;41.594;23.808;2023-02-18T11:12:18;96023.72;;;11.98;37.87
24160;BME280;62385;41.594;23.808;2023-02-18T11:14:48;96027.38;;;12.30;37.62
24160;BME280;62385;41.594;23.808;2023-02-18T11:17:27;96016.97;;;12.59;37.07
24160;BME280;62385;41.594;23.808;2023-02-18T11:19:59;96017.97;;;12.74;37.76
24160;BME280;62385;41.594;23.808;2023-02-18T11:22:34;96017.47;;;13.18;36.74
24160;BME280;62385;41.594;23.808;2023-02-18T11:25:25;96005.09;;;13.33;35.49
24160;BME280;62385;41.594;23.808;2023-02-18T11:27:56;96001.28;;;13.27;35.00
24160;BME280;62385;41.594;23.808;2023-02-18T11:30:29;95996.81;;;13.20;35.36
24160;BME280;62385;41.594;23.808;2023-02-18T11:33:01;95996.66;;;13.05;34.58
24160;BME280;62385;41.594;23.808;2023-02-18T11:35:29;96003.25;;;12.86;34.13
24160;BME280;62385;41.594;23.808;2023-02-18T11:37:58;95991.50;;;13.20;33.95
24160;BME280;62385;41.594;23.808;2023-02-18T11:43:11;95977.59;;;13.55;32.70
24160;BME280;62385;41.594;23.808;2023-02-18T11:45:38;95975.59;;;13.80;33.61
24160;BME280;62385;41.594;23.808;2023-02-18T11:48:15;95968.72;;;13.85;32.74
24160;BME280;62385;41.594;23.808;2023-02-18T11:50:41;95966.50;;;13.89;33.09
24160;BME280;62385;41.594;23.808;2023-02-18T11:53:28;95954.00;;;14.27;31.75
24160;BME280;62385;41.594;23.808;2023-02-18T11:55:57;95949.78;;;14.32;32.37
24160;BME280;62385;41.594;23.808;2023-02-18T11:58:23;95958.59;;;14.33;32.53
24160;BME280;62385;41.594;23.808;2023-02-18T12:00:49;95941.72;;;14.18;32.83
24160;BME280;62385;41.594;23.808;2023-02-18T12:06:11;95937.66;;;14.59;33.93
24160;BME280;62385;41.594;23.808;2023-02-18T12:09:06;95932.78;;;14.48;31.18
24160;BME280;62385;41.594;23.808;2023-02-18T12:11:40;95926.31;;;14.72;31.90
24160;BME280;62385;41.594;23.808;2023-02-18T12:14:21;95930.63;;;14.88;30.53
24160;BME280;62385;41.594;23.808;2023-02-18T12:24:45;95914.03;;;14.92;27.90
24160;BME280;62385;41.594;23.808;2023-02-18T12:44:03;95888.28;;;15.06;27.90
24160;BME280;62385;41.594;23.808;2023-02-18T12:46:45;95885.13;;;15.53;27.40
24160;BME280;62385;41.594;23.808;2023-02-18T12:49:25;95880.63;;;15.60;27.65
24160;BME280;62385;41.594;23.808;2023-02-18T13:07:30;95850.66;;;16.27;28.36
24160;BME280;62385;41.594;23.808;2023-02-18T13:10:11;95852.97;;;16.02;27.85
24160;BME280;62385;41.594;23.808;2023-02-18T13:15:38;95843.44;;;15.93;28.00
24160;BME280;62385;41.594;23.808;2023-02-18T13:18:12;95841.34;;;15.46;29.76
24160;BME280;62385;41.594;23.808;2023-02-18T13:20:53;95837.34;;;15.35;29.00
24160;BME280;62385;41.594;23.808;2023-02-18T13:23:27;95833.59;;;15.30;28.62
24160;BME280;62385;41.594;23.808;2023-02-18T13:26:01;95835.38;;;15.01;29.59
24160;BME280;62385;41.594;23.808;2023-02-18T13:28:48;95831.00;;;15.36;28.68
24160;BME280;62385;41.594;23.808;2023-02-18T13:37:05;95831.84;;;15.86;26.84
24160;BME280;62385;41.594;23.808;2023-02-18T13:39:33;95830.50;;;16.03;25.27
24160;BME280;62385;41.594;23.808;2023-02-18T13:42:24;95834.16;;;16.23;25.52
24160;BME280;62385;41.594;23.808;2023-02-18T13:47:39;95813.25;;;15.78;27.17
24160;BME280;62385;41.594;23.808;2023-02-18T13:50:30;95823.47;;;15.95;27.51
24160;BME280;62385;41.594;23.808;2023-02-18T13:58:28;95818.38;;;16.07;28.45
24160;BME280;62385;41.594;23.808;2023-02-18T14:06:16;95827.91;;;16.50;27.46
24160;BME280;62385;41.594;23.808;2023-02-18T14:08:42;95821.72;;;16.50;27.83
24160;BME280;62385;41.594;23.808;2023-02-18T14:13:41;95820.03;;;16.90;25.32
24160;BME280;62385;41.594;23.808;2023-02-18T14:16:09;95813.47;;;16.99;25.40
24160;BME280;62385;41.594;23.808;2023-02-18T14:33:39;95794.28;;;16.07;28.96
24160;BME280;62385;41.594;23.808;2023-02-18T14:39:56;95806.56;;;16.29;28.72
24160;BME280;62385;41.594;23.808;2023-02-18T14:48:24;95787.41;;;16.73;28.12
24160;BME280;62385;41.594;23.808;2023-02-18T14:50:54;95780.84;;;16.82;27.68
24160;BME280;62385;41.594;23.808;2023-02-18T14:53:23;95786.78;;;16.65;27.46
24160;BME280;62385;41.594;23.808;2023-02-18T14:55:54;95782.59;;;16.55;27.78
24160;BME280;62385;41.594;23.808;2023-02-18T14:58:35;95782.72;;;16.41;26.85
24160;BME280;62385;41.594;23.808;2023-02-18T15:03:42;95784.00;;;16.51;27.88
24160;BME280;62385;41.594;23.808;2023-02-18T15:06:40;95801.75;;;15.84;28.23
24160;BME280;62385;41.594;23.808;2023-02-18T15:09:13;95799.66;;;15.79;29.04
24160;BME280;62385;41.594;23.808;2023-02-18T15:11:46;95784.94;;;15.90;30.22
24160;BME280;62385;41.594;23.808;2023-02-18T15:14:20;95787.03;;;16.01;30.20
24160;BME280;62385;41.594;23.808;2023-02-18T15:16:48;95788.22;;;16.26;29.63
24160;BME280;62385;41.594;23.808;2023-02-18T15:19:16;95785.06;;;15.82;30.46
24160;BME280;62385;41.594;23.808;2023-02-18T15:21:47;95781.13;;;15.50;30.33
24160;BME280;62385;41.594;23.808;2023-02-18T15:24:30;95782.06;;;15.42;29.69
24160;BME280;62385;41.594;23.808;2023-02-18T15:26:59;95780.47;;;15.27;30.10
24160;BME280;62385;41.594;23.808;2023-02-18T15:29:29;95774.91;;;15.28;29.67
24160;BME280;62385;41.594;23.808;2023-02-18T15:31:56;95778.25;;;15.09;30.70
24160;BME280;62385;41.594;23.808;2023-02-18T15:36:57;95785.75;;;14.77;31.13
24160;BME280;62385;41.594;23.808;2023-02-18T15:39:25;95775.88;;;14.42;32.96
24160;BME280;62385;41.594;23.808;2023-02-18T15:41:56;95790.72;;;13.34;35.96
24160;BME280;62385;41.594;23.808;2023-02-18T15:44:26;95786.44;;;13.10;36.16
24160;BME280;62385;41.594;23.808;2023-02-18T15:46:53;95807.91;;;12.24;38.72
24160;BME280;62385;41.594;23.808;2023-02-18T15:49:21;95799.03;;;12.40;37.88
24160;BME280;62385;41.594;23.808;2023-02-18T15:51:55;95810.72;;;12.31;38.04
24160;BME280;62385;41.594;23.808;2023-02-18T15:54:22;95819.38;;;11.62;39.57
24160;BME280;62385;41.594;23.808;2023-02-18T15:56:51;95807.59;;;11.48;40.56